sensor_id;sensor_type;location;lat;lon;timestamp;P1;durP1;ratioP1;P2;durP2;ratioP2
67889;SDS011;54685;52.082;5.426;2023-04-03T00:02:03;3.40;;;0.90;;
67889;SDS011;54685;52.082;5.426;2023-04-03T00:04:30;1.42;;;0.98;;
67889;SDS011;54685;52.082;5.426;2023-04-03T00:06:57;2.53;;;1.27;;
67889;SDS011;54685;52.082;5.426;2023-04-03T00:09:24;2.25;;;1.27;;
67889;SDS011;54685;52.082;5.426;2023-04-03T00:11:51;2.45;;;1.10;;
67889;SDS011;54685;52.082;5.426;2023-04-03T00:14:18;1.42;;;1.10;;
67889;SDS011;54685;52.082;5.426;2023-04-03T00:16:46;1.98;;;1.15;;
67889;SDS011;54685;52.082;5.426;2023-04-03T00:19:13;2.97;;;1.20;;
67889;SDS011;54685;52.082;5.426;2023-04-03T00:21:39;2.47;;;1.30;;
67889;SDS011;54685;52.082;5.426;2023-04-03T00:24:06;3.38;;;1.40;;
67889;SDS011;54685;52.082;5.426;2023-04-03T00:26:33;1.65;;;1.15;;
67889;SDS011;54685;52.082;5.426;2023-04-03T00:29:00;2.97;;;1.25;;
67889;SDS011;54685;52.082;5.426;2023-04-03T00:31:27;5.05;;;1.65;;
67889;SDS011;54685;52.082;5.426;2023-04-03T00:33:54;3.28;;;1.20;;
67889;SDS011;54685;52.082;5.426;2023-04-03T00:36:21;1.23;;;1.02;;
67889;SDS011;54685;52.082;5.426;2023-04-03T00:38:48;1.83;;;1.10;;
67889;SDS011;54685;52.082;5.426;2023-04-03T00:41:15;1.20;;;0.93;;
67889;SDS011;54685;52.082;5.426;2023-04-03T00:43:43;2.65;;;1.40;;
67889;SDS011;54685;52.082;5.426;2023-04-03T00:46:11;3.10;;;1.38;;
67889;SDS011;54685;52.082;5.426;2023-04-03T00:48:44;5.15;;;1.80;;
67889;SDS011;54685;52.082;5.426;2023-04-03T00:51:23;2.35;;;1.08;;
67889;SDS011;54685;52.082;5.426;2023-04-03T00:53:56;3.88;;;1.20;;
67889;SDS011;54685;52.082;5.426;2023-04-03T00:56:27;6.22;;;1.17;;
67889;SDS011;54685;52.082;5.426;2023-04-03T00:59:08;3.05;;;1.20;;
67889;SDS011;54685;52.082;5.426;2023-04-03T01:01:40;3.88;;;1.30;;
67889;SDS011;54685;52.082;5.426;2023-04-03T01:07:15;7.53;;;1.30;;
67889;SDS011;54685;52.082;5.426;2023-04-03T01:09:45;3.58;;;1.30;;
67889;SDS011;54685;52.082;5.426;2023-04-03T01:12:15;5.32;;;1.30;;
67889;SDS011;54685;52.082;5.426;2023-04-03T01:14:48;2.33;;;1.27;;
67889;SDS011;54685;52.082;5.426;2023-04-03T01:25:37;3.80;;;1.50;;
67889;SDS011;54685;52.082;5.426;2023-04-03T01:28:16;1.20;;;1.05;;
67889;SDS011;54685;52.082;5.426;2023-04-03T01:33:25;5.97;;;1.83;;
67889;SDS011;54685;52.082;5.426;2023-04-03T01:35:52;5.78;;;1.65;;
67889;SDS011;54685;52.082;5.426;2023-04-03T01:38:19;3.25;;;1.48;;
67889;SDS011;54685;52.082;5.426;2023-04-03T01:40:46;3.60;;;1.48;;
67889;SDS011;54685;52.082;5.426;2023-04-03T01:43:13;5.82;;;1.33;;
67889;SDS011;54685;52.082;5.426;2023-04-03T01:45:40;7.40;;;1.77;;
67889;SDS011;54685;52.082;5.426;2023-04-03T01:48:07;5.50;;;1.95;;
67889;SDS011;54685;52.082;5.426;2023-04-03T01:50:34;3.60;;;1.20;;
67889;SDS011;54685;52.082;5.426;2023-04-03T01:53:01;5.70;;;1.77;;
67889;SDS011;54685;52.082;5.426;2023-04-03T01:55:28;2.97;;;1.60;;
67889;SDS011;54685;52.082;5.426;2023-04-03T01:57:55;3.45;;;1.40;;
67889;SDS011;54685;52.082;5.426;2023-04-03T02:00:22;3.55;;;1.40;;
67889;SDS011;54685;52.082;5.426;2023-04-03T02:02:49;3.40;;;1.42;;
67889;SDS011;54685;52.082;5.426;2023-04-03T02:05:16;3.78;;;1.50;;
67889;SDS011;54685;52.082;5.426;2023-04-03T02:07:43;3.35;;;1.42;;
67889;SDS011;54685;52.082;5.426;2023-04-03T02:10:10;4.90;;;1.48;;
67889;SDS011;54685;52.082;5.426;2023-04-03T02:12:37;5.20;;;1.45;;
67889;SDS011;54685;52.082;5.426;2023-04-03T02:15:04;3.67;;;1.52;;
67889;SDS011;54685;52.082;5.426;2023-04-03T02:17:31;4.25;;;1.50;;
67889;SDS011;54685;52.082;5.426;2023-04-03T02:19:58;2.78;;;1.30;;
67889;SDS011;54685;52.082;5.426;2023-04-03T02:22:25;2.92;;;1.40;;
67889;SDS011;54685;52.082;5.426;2023-04-03T02:24:52;3.67;;;1.58;;
67889;SDS011;54685;52.082;5.426;2023-04-03T02:27:19;1.88;;;1.10;;
67889;SDS011;54685;52.082;5.426;2023-04-03T02:29:47;2.83;;;1.73;;
67889;SDS011;54685;52.082;5.426;2023-04-03T02:32:14;2.55;;;1.30;;
67889;SDS011;54685;52.082;5.426;2023-04-03T02:34:41;2.10;;;1.60;;
67889;SDS011;54685;52.082;5.426;2023-04-03T02:37:12;3.08;;;1.45;;
67889;SDS011;54685;52.082;5.426;2023-04-03T02:39:40;2.65;;;1.48;;
67889;SDS011;54685;52.082;5.426;2023-04-03T02:42:07;5.05;;;1.63;;
67889;SDS011;54685;52.082;5.426;2023-04-03T02:44:34;2.78;;;1.42;;
67889;SDS011;54685;52.082;5.426;2023-04-03T02:47:01;3.78;;;1.63;;
67889;SDS011;54685;52.082;5.426;2023-04-03T02:49:29;5.13;;;1.85;;
67889;SDS011;54685;52.082;5.426;2023-04-03T02:51:55;3.53;;;1.52;;
67889;SDS011;54685;52.082;5.426;2023-04-03T02:54:22;2.63;;;1.40;;
67889;SDS011;54685;52.082;5.426;2023-04-03T02:56:56;3.17;;;1.55;;
67889;SDS011;54685;52.082;5.426;2023-04-03T02:59:24;4.22;;;1.88;;
67889;SDS011;54685;52.082;5.426;2023-04-03T03:01:51;4.75;;;1.90;;
67889;SDS011;54685;52.082;5.426;2023-04-03T03:04:18;4.72;;;1.85;;
67889;SDS011;54685;52.082;5.426;2023-04-03T03:06:45;8.88;;;2.25;;
67889;SDS011;54685;52.082;5.426;2023-04-03T03:09:13;6.97;;;1.90;;
67889;SDS011;54685;52.082;5.426;2023-04-03T03:11:41;3.55;;;1.70;;
67889;SDS011;54685;52.082;5.426;2023-04-03T03:14:08;4.93;;;1.70;;
67889;SDS011;54685;52.082;5.426;2023-04-03T03:16:35;6.13;;;1.77;;
67889;SDS011;54685;52.082;5.426;2023-04-03T03:19:02;4.38;;;1.70;;
67889;SDS011;54685;52.082;5.426;2023-04-03T03:21:29;3.08;;;1.60;;
67889;SDS011;54685;52.082;5.426;2023-04-03T03:23:56;3.45;;;1.65;;
67889;SDS011;54685;52.082;5.426;2023-04-03T03:26:22;2.72;;;1.70;;
67889;SDS011;54685;52.082;5.426;2023-04-03T03:28:50;4.70;;;1.70;;
67889;SDS011;54685;52.082;5.426;2023-04-03T03:31:17;3.28;;;1.67;;
67889;SDS011;54685;52.082;5.426;2023-04-03T03:33:44;3.17;;;1.67;;
67889;SDS011;54685;52.082;5.426;2023-04-03T03:36:10;3.92;;;1.48;;
67889;SDS011;54685;52.082;5.426;2023-04-03T03:38:37;3.92;;;1.42;;
67889;SDS011;54685;52.082;5.426;2023-04-03T03:41:04;5.47;;;1.73;;
67889;SDS011;54685;52.082;5.426;2023-04-03T03:43:33;5.32;;;1.90;;
67889;SDS011;54685;52.082;5.426;2023-04-03T03:46:01;2.65;;;1.23;;
67889;SDS011;54685;52.082;5.426;2023-04-03T03:48:28;3.67;;;1.42;;
67889;SDS011;54685;52.082;5.426;2023-04-03T03:50:55;5.80;;;1.80;;
67889;SDS011;54685;52.082;5.426;2023-04-03T03:53:26;3.22;;;1.77;;
67889;SDS011;54685;52.082;5.426;2023-04-03T03:55:57;5.32;;;1.70;;
67889;SDS011;54685;52.082;5.426;2023-04-03T03:58:26;5.85;;;1.90;;
67889;SDS011;54685;52.082;5.426;2023-04-03T04:00:53;7.60;;;2.40;;
67889;SDS011;54685;52.082;5.426;2023-04-03T04:03:19;3.72;;;1.75;;
67889;SDS011;54685;52.082;5.426;2023-04-03T04:05:48;6.90;;;1.65;;
67889;SDS011;54685;52.082;5.426;2023-04-03T04:08:15;5.53;;;1.65;;
67889;SDS011;54685;52.082;5.426;2023-04-03T04:10:43;8.70;;;2.25;;
67889;SDS011;54685;52.082;5.426;2023-04-03T04:13:12;6.00;;;1.98;;
67889;SDS011;54685;52.082;5.426;2023-04-03T04:15:39;5.70;;;1.90;;
67889;SDS011;54685;52.082;5.426;2023-04-03T04:18:06;4.90;;;1.90;;
67889;SDS011;54685;52.082;5.426;2023-04-03T04:20:33;5.63;;;1.90;;
67889;SDS011;54685;52.082;5.426;2023-04-03T04:23:00;5.53;;;1.88;;
67889;SDS011;54685;52.082;5.426;2023-04-03T04:25:29;2.83;;;1.60;;
67889;SDS011;54685;52.082;5.426;2023-04-03T04:27:56;4.97;;;1.83;;
67889;SDS011;54685;52.082;5.426;2023-04-03T04:30:23;4.72;;;1.60;;
67889;SDS011;54685;52.082;5.426;2023-04-03T04:32:51;4.68;;;1.85;;
67889;SDS011;54685;52.082;5.426;2023-04-03T04:35:17;6.22;;;1.83;;
67889;SDS011;54685;52.082;5.426;2023-04-03T04:37:47;5.78;;;1.60;;
67889;SDS011;54685;52.082;5.426;2023-04-03T04:40:14;3.88;;;1.73;;
67889;SDS011;54685;52.082;5.426;2023-04-03T04:42:42;8.43;;;1.95;;
67889;SDS011;54685;52.082;5.426;2023-04-03T04:45:09;8.18;;;2.28;;
67889;SDS011;54685;52.082;5.426;2023-04-03T04:47:38;7.35;;;2.00;;
67889;SDS011;54685;52.082;5.426;2023-04-03T04:50:05;13.23;;;2.55;;
67889;SDS011;54685;52.082;5.426;2023-04-03T04:52:32;7.60;;;2.17;;
67889;SDS011;54685;52.082;5.426;2023-04-03T04:54:59;6.20;;;2.28;;
67889;SDS011;54685;52.082;5.426;2023-04-03T04:57:26;8.40;;;2.05;;
67889;SDS011;54685;52.082;5.426;2023-04-03T04:59:56;6.65;;;2.10;;
67889;SDS011;54685;52.082;5.426;2023-04-03T05:02:22;4.25;;;1.92;;
67889;SDS011;54685;52.082;5.426;2023-04-03T05:04:50;6.45;;;2.53;;
67889;SDS011;54685;52.082;5.426;2023-04-03T05:07:22;5.63;;;2.20;;
67889;SDS011;54685;52.082;5.426;2023-04-03T05:09:50;4.45;;;2.13;;
67889;SDS011;54685;52.082;5.426;2023-04-03T05:12:17;9.27;;;2.22;;
67889;SDS011;54685;52.082;5.426;2023-04-03T05:14:51;13.75;;;2.30;;
67889;SDS011;54685;52.082;5.426;2023-04-03T05:17:18;7.53;;;2.40;;
67889;SDS011;54685;52.082;5.426;2023-04-03T05:19:49;7.38;;;2.03;;
67889;SDS011;54685;52.082;5.426;2023-04-03T05:22:21;8.50;;;2.57;;
67889;SDS011;54685;52.082;5.426;2023-04-03T05:24:50;9.82;;;2.30;;
67889;SDS011;54685;52.082;5.426;2023-04-03T05:27:18;7.82;;;2.55;;
67889;SDS011;54685;52.082;5.426;2023-04-03T05:29:50;6.80;;;1.90;;
67889;SDS011;54685;52.082;5.426;2023-04-03T05:32:21;3.75;;;1.80;;
67889;SDS011;54685;52.082;5.426;2023-04-03T05:34:55;6.63;;;2.20;;
67889;SDS011;54685;52.082;5.426;2023-04-03T05:37:23;4.47;;;1.95;;
67889;SDS011;54685;52.082;5.426;2023-04-03T05:39:51;7.68;;;2.33;;
67889;SDS011;54685;52.082;5.426;2023-04-03T05:42:18;3.28;;;1.75;;
67889;SDS011;54685;52.082;5.426;2023-04-03T05:44:46;9.40;;;2.15;;
67889;SDS011;54685;52.082;5.426;2023-04-03T05:47:13;10.88;;;2.65;;
67889;SDS011;54685;52.082;5.426;2023-04-03T05:49:43;7.28;;;2.05;;
67889;SDS011;54685;52.082;5.426;2023-04-03T05:52:23;6.80;;;2.35;;
67889;SDS011;54685;52.082;5.426;2023-04-03T05:54:54;4.88;;;2.35;;
67889;SDS011;54685;52.082;5.426;2023-04-03T05:57:24;8.30;;;2.08;;
67889;SDS011;54685;52.082;5.426;2023-04-03T05:59:52;11.75;;;2.47;;
67889;SDS011;54685;52.082;5.426;2023-04-03T06:02:20;11.80;;;2.63;;
67889;SDS011;54685;52.082;5.426;2023-04-03T06:04:49;6.60;;;2.10;;
67889;SDS011;54685;52.082;5.426;2023-04-03T06:07:19;7.13;;;2.22;;
67889;SDS011;54685;52.082;5.426;2023-04-03T06:09:49;7.97;;;2.30;;
67889;SDS011;54685;52.082;5.426;2023-04-03T06:12:18;6.50;;;2.03;;
67889;SDS011;54685;52.082;5.426;2023-04-03T06:14:45;8.25;;;2.40;;
67889;SDS011;54685;52.082;5.426;2023-04-03T06:17:14;13.18;;;2.33;;
67889;SDS011;54685;52.082;5.426;2023-04-03T06:19:42;6.43;;;2.00;;
67889;SDS011;54685;52.082;5.426;2023-04-03T06:22:10;4.88;;;2.40;;
67889;SDS011;54685;52.082;5.426;2023-04-03T06:24:38;7.25;;;2.25;;
67889;SDS011;54685;52.082;5.426;2023-04-03T06:27:09;8.45;;;2.13;;
67889;SDS011;54685;52.082;5.426;2023-04-03T06:29:37;6.32;;;2.20;;
67889;SDS011;54685;52.082;5.426;2023-04-03T06:32:04;8.27;;;2.35;;
67889;SDS011;54685;52.082;5.426;2023-04-03T06:34:31;3.95;;;2.25;;
67889;SDS011;54685;52.082;5.426;2023-04-03T06:36:58;11.45;;;2.50;;
67889;SDS011;54685;52.082;5.426;2023-04-03T06:39:26;6.30;;;2.03;;
67889;SDS011;54685;52.082;5.426;2023-04-03T06:41:56;3.92;;;1.83;;
67889;SDS011;54685;52.082;5.426;2023-04-03T06:44:34;7.20;;;2.05;;
67889;SDS011;54685;52.082;5.426;2023-04-03T06:47:01;4.22;;;2.10;;
67889;SDS011;54685;52.082;5.426;2023-04-03T06:49:28;5.13;;;2.00;;
67889;SDS011;54685;52.082;5.426;2023-04-03T06:51:55;9.10;;;2.10;;
67889;SDS011;54685;52.082;5.426;2023-04-03T06:54:25;6.30;;;2.10;;
67889;SDS011;54685;52.082;5.426;2023-04-03T06:56:53;7.32;;;2.35;;
67889;SDS011;54685;52.082;5.426;2023-04-03T06:59:19;3.80;;;1.90;;
67889;SDS011;54685;52.082;5.426;2023-04-03T07:01:47;3.25;;;1.70;;
67889;SDS011;54685;52.082;5.426;2023-04-03T07:04:14;5.45;;;1.73;;
67889;SDS011;54685;52.082;5.426;2023-04-03T07:06:44;6.80;;;2.20;;
67889;SDS011;54685;52.082;5.426;2023-04-03T07:09:11;11.00;;;2.40;;
67889;SDS011;54685;52.082;5.426;2023-04-03T07:11:37;4.50;;;2.22;;
67889;SDS011;54685;52.082;5.426;2023-04-03T07:14:05;5.03;;;2.30;;
67889;SDS011;54685;52.082;5.426;2023-04-03T07:16:34;6.47;;;2.15;;
67889;SDS011;54685;52.082;5.426;2023-04-03T07:19:01;6.80;;;2.05;;
67889;SDS011;54685;52.082;5.426;2023-04-03T07:21:29;7.30;;;2.10;;
67889;SDS011;54685;52.082;5.426;2023-04-03T07:23:56;7.70;;;2.40;;
67889;SDS011;54685;52.082;5.426;2023-04-03T07:26:23;8.13;;;1.95;;
67889;SDS011;54685;52.082;5.426;2023-04-03T07:28:49;8.52;;;2.20;;
67889;SDS011;54685;52.082;5.426;2023-04-03T07:31:16;6.22;;;1.80;;
67889;SDS011;54685;52.082;5.426;2023-04-03T07:33:44;5.28;;;2.08;;
67889;SDS011;54685;52.082;5.426;2023-04-03T07:36:14;6.25;;;1.77;;
67889;SDS011;54685;52.082;5.426;2023-04-03T07:38:43;5.45;;;2.20;;
67889;SDS011;54685;52.082;5.426;2023-04-03T07:41:11;8.15;;;2.50;;
67889;SDS011;54685;52.082;5.426;2023-04-03T07:43:44;6.75;;;1.88;;
67889;SDS011;54685;52.082;5.426;2023-04-03T07:46:11;3.90;;;1.83;;
67889;SDS011;54685;52.082;5.426;2023-04-03T07:48:38;5.10;;;1.60;;
67889;SDS011;54685;52.082;5.426;2023-04-03T07:51:05;8.70;;;1.92;;
67889;SDS011;54685;52.082;5.426;2023-04-03T07:53:32;6.93;;;2.90;;
67889;SDS011;54685;52.082;5.426;2023-04-03T07:56:02;4.35;;;1.80;;
67889;SDS011;54685;52.082;5.426;2023-04-03T07:58:29;5.10;;;1.80;;
67889;SDS011;54685;52.082;5.426;2023-04-03T08:00:56;5.05;;;1.58;;
67889;SDS011;54685;52.082;5.426;2023-04-03T08:03:23;5.78;;;2.28;;
67889;SDS011;54685;52.082;5.426;2023-04-03T08:05:50;7.65;;;1.98;;
67889;SDS011;54685;52.082;5.426;2023-04-03T08:08:19;6.90;;;1.83;;
67889;SDS011;54685;52.082;5.426;2023-04-03T08:10:51;3.58;;;1.67;;
67889;SDS011;54685;52.082;5.426;2023-04-03T08:13:19;2.95;;;1.40;;
67889;SDS011;54685;52.082;5.426;2023-04-03T08:15:47;3.67;;;1.27;;
67889;SDS011;54685;52.082;5.426;2023-04-03T08:18:14;5.07;;;1.50;;
67889;SDS011;54685;52.082;5.426;2023-04-03T08:20:42;6.47;;;1.40;;
67889;SDS011;54685;52.082;5.426;2023-04-03T08:23:09;5.25;;;1.42;;
67889;SDS011;54685;52.082;5.426;2023-04-03T08:25:37;1.30;;;1.00;;
67889;SDS011;54685;52.082;5.426;2023-04-03T08:28:08;6.05;;;1.15;;
67889;SDS011;54685;52.082;5.426;2023-04-03T08:30:35;3.97;;;1.40;;
67889;SDS011;54685;52.082;5.426;2023-04-03T08:33:05;1.90;;;0.90;;
67889;SDS011;54685;52.082;5.426;2023-04-03T08:35:33;2.67;;;1.30;;
67889;SDS011;54685;52.082;5.426;2023-04-03T08:38:04;4.53;;;1.30;;
67889;SDS011;54685;52.082;5.426;2023-04-03T08:40:31;4.15;;;1.20;;
67889;SDS011;54685;52.082;5.426;2023-04-03T08:45:51;3.47;;;1.30;;
67889;SDS011;54685;52.082;5.426;2023-04-03T08:48:24;9.13;;;1.05;;
67889;SDS011;54685;52.082;5.426;2023-04-03T08:50:58;2.30;;;1.08;;
67889;SDS011;54685;52.082;5.426;2023-04-03T08:53:32;4.40;;;1.42;;
67889;SDS011;54685;52.082;5.426;2023-04-03T08:56:03;3.20;;;1.10;;
67889;SDS011;54685;52.082;5.426;2023-04-03T08:58:56;3.33;;;1.10;;
67889;SDS011;54685;52.082;5.426;2023-04-03T09:01:24;4.93;;;1.45;;
67889;SDS011;54685;52.082;5.426;2023-04-03T09:03:56;4.18;;;0.88;;
67889;SDS011;54685;52.082;5.426;2023-04-03T09:06:26;3.33;;;0.90;;
67889;SDS011;54685;52.082;5.426;2023-04-03T09:09:07;1.90;;;0.60;;
67889;SDS011;54685;52.082;5.426;2023-04-03T09:17:59;2.80;;;0.60;;
67889;SDS011;54685;52.082;5.426;2023-04-03T09:23:30;1.90;;;1.02;;
67889;SDS011;54685;52.082;5.426;2023-04-03T09:26:06;4.03;;;0.90;;
67889;SDS011;54685;52.082;5.426;2023-04-03T09:28:39;3.30;;;0.65;;
67889;SDS011;54685;52.082;5.426;2023-04-03T09:31:20;1.45;;;0.70;;
67889;SDS011;54685;52.082;5.426;2023-04-03T09:33:50;2.15;;;0.82;;
67889;SDS011;54685;52.082;5.426;2023-04-03T09:39:21;3.15;;;0.73;;
67889;SDS011;54685;52.082;5.426;2023-04-03T09:41:57;1.80;;;0.60;;
67889;SDS011;54685;52.082;5.426;2023-04-03T09:44:33;0.77;;;0.50;;
67889;SDS011;54685;52.082;5.426;2023-04-03T09:47:45;1.48;;;0.60;;
67889;SDS011;54685;52.082;5.426;2023-04-03T09:52:39;1.83;;;0.57;;
67889;SDS011;54685;52.082;5.426;2023-04-03T09:55:08;1.70;;;0.65;;
67889;SDS011;54685;52.082;5.426;2023-04-03T09:57:40;2.65;;;0.70;;
67889;SDS011;54685;52.082;5.426;2023-04-03T10:02:55;1.80;;;0.40;;
67889;SDS011;54685;52.082;5.426;2023-04-03T10:05:27;1.63;;;0.70;;
67889;SDS011;54685;52.082;5.426;2023-04-03T10:11:06;1.05;;;0.60;;
67889;SDS011;54685;52.082;5.426;2023-04-03T10:13:50;1.10;;;0.60;;
67889;SDS011;54685;52.082;5.426;2023-04-03T10:19:14;0.50;;;0.40;;
67889;SDS011;54685;52.082;5.426;2023-04-03T10:22:08;1.38;;;0.60;;
67889;SDS011;54685;52.082;5.426;2023-04-03T10:24:48;2.83;;;0.50;;
67889;SDS011;54685;52.082;5.426;2023-04-03T10:30:18;1.67;;;0.50;;
67889;SDS011;54685;52.082;5.426;2023-04-03T10:38:16;0.75;;;0.38;;
67889;SDS011;54685;52.082;5.426;2023-04-03T10:41:15;4.13;;;0.47;;
67889;SDS011;54685;52.082;5.426;2023-04-03T10:43:52;1.10;;;0.45;;
67889;SDS011;54685;52.082;5.426;2023-04-03T10:46:40;1.92;;;0.60;;
67889;SDS011;54685;52.082;5.426;2023-04-03T10:51:55;2.88;;;0.68;;
67889;SDS011;54685;52.082;5.426;2023-04-03T10:54:35;1.23;;;0.70;;
67889;SDS011;54685;52.082;5.426;2023-04-03T10:57:09;2.70;;;0.60;;
67889;SDS011;54685;52.082;5.426;2023-04-03T11:02:25;1.48;;;0.80;;
67889;SDS011;54685;52.082;5.426;2023-04-03T11:05:25;2.22;;;0.75;;
67889;SDS011;54685;52.082;5.426;2023-04-03T11:07:59;2.88;;;1.10;;
67889;SDS011;54685;52.082;5.426;2023-04-03T11:13:08;1.98;;;0.68;;
67889;SDS011;54685;52.082;5.426;2023-04-03T11:15:40;2.72;;;0.80;;
67889;SDS011;54685;52.082;5.426;2023-04-03T11:18:12;2.28;;;0.90;;
67889;SDS011;54685;52.082;5.426;2023-04-03T11:20:47;1.50;;;0.73;;
67889;SDS011;54685;52.082;5.426;2023-04-03T11:23:29;3.33;;;0.70;;
67889;SDS011;54685;52.082;5.426;2023-04-03T11:26:16;1.92;;;0.60;;
67889;SDS011;54685;52.082;5.426;2023-04-03T11:28:51;1.65;;;0.55;;
67889;SDS011;54685;52.082;5.426;2023-04-03T11:31:33;1.10;;;0.60;;
67889;SDS011;54685;52.082;5.426;2023-04-03T11:34:13;5.15;;;0.93;;
67889;SDS011;54685;52.082;5.426;2023-04-03T11:36:58;3.55;;;0.70;;
67889;SDS011;54685;52.082;5.426;2023-04-03T11:39:31;1.83;;;0.63;;
67889;SDS011;54685;52.082;5.426;2023-04-03T11:42:13;3.67;;;0.88;;
67889;SDS011;54685;52.082;5.426;2023-04-03T11:45:00;2.17;;;0.80;;
67889;SDS011;54685;52.082;5.426;2023-04-03T11:50:56;1.23;;;0.70;;
67889;SDS011;54685;52.082;5.426;2023-04-03T12:01:52;3.70;;;0.90;;
67889;SDS011;54685;52.082;5.426;2023-04-03T12:04:25;1.73;;;0.80;;
67889;SDS011;54685;52.082;5.426;2023-04-03T12:07:11;1.95;;;0.80;;
67889;SDS011;54685;52.082;5.426;2023-04-03T12:14:56;3.28;;;1.00;;
67889;SDS011;54685;52.082;5.426;2023-04-03T12:17:45;3.75;;;1.05;;
67889;SDS011;54685;52.082;5.426;2023-04-03T12:25:50;1.88;;;0.80;;
67889;SDS011;54685;52.082;5.426;2023-04-03T12:28:17;1.88;;;0.90;;
67889;SDS011;54685;52.082;5.426;2023-04-03T12:30:44;2.75;;;0.90;;
67889;SDS011;54685;52.082;5.426;2023-04-03T12:36:08;2.75;;;1.00;;
67889;SDS011;54685;52.082;5.426;2023-04-03T12:41:45;1.25;;;0.73;;
67889;SDS011;54685;52.082;5.426;2023-04-03T12:44:40;2.03;;;0.70;;
67889;SDS011;54685;52.082;5.426;2023-04-03T12:47:25;1.25;;;0.77;;
67889;SDS011;54685;52.082;5.426;2023-04-03T12:50:03;2.63;;;0.82;;
67889;SDS011;54685;52.082;5.426;2023-04-03T12:52:38;2.88;;;1.08;;
67889;SDS011;54685;52.082;5.426;2023-04-03T12:55:17;1.52;;;0.90;;
67889;SDS011;54685;52.082;5.426;2023-04-03T12:57:46;2.95;;;1.20;;
67889;SDS011;54685;52.082;5.426;2023-04-03T13:00:32;5.03;;;1.00;;
67889;SDS011;54685;52.082;5.426;2023-04-03T13:03:02;2.53;;;0.98;;
67889;SDS011;54685;52.082;5.426;2023-04-03T13:05:31;3.58;;;1.02;;
67889;SDS011;54685;52.082;5.426;2023-04-03T13:08:03;3.90;;;0.90;;
67889;SDS011;54685;52.082;5.426;2023-04-03T13:10:43;2.25;;;0.73;;
67889;SDS011;54685;52.082;5.426;2023-04-03T13:13:21;2.25;;;1.13;;
67889;SDS011;54685;52.082;5.426;2023-04-03T13:15:49;3.15;;;1.05;;
67889;SDS011;54685;52.082;5.426;2023-04-03T13:18:28;1.38;;;0.80;;
67889;SDS011;54685;52.082;5.426;2023-04-03T13:21:07;2.53;;;1.00;;
67889;SDS011;54685;52.082;5.426;2023-04-03T13:23:43;2.33;;;0.90;;
67889;SDS011;54685;52.082;5.426;2023-04-03T13:26:16;2.08;;;1.00;;
67889;SDS011;54685;52.082;5.426;2023-04-03T13:28:45;2.65;;;1.27;;
67889;SDS011;54685;52.082;5.426;2023-04-03T13:33:57;1.60;;;1.00;;
67889;SDS011;54685;52.082;5.426;2023-04-03T13:36:30;1.73;;;1.10;;
67889;SDS011;54685;52.082;5.426;2023-04-03T13:41:36;2.15;;;1.10;;
67889;SDS011;54685;52.082;5.426;2023-04-03T13:46:55;2.88;;;1.00;;
67889;SDS011;54685;52.082;5.426;2023-04-03T13:49:42;4.38;;;1.40;;
67889;SDS011;54685;52.082;5.426;2023-04-03T13:52:38;3.42;;;1.20;;
67889;SDS011;54685;52.082;5.426;2023-04-03T13:58:20;2.00;;;1.10;;
67889;SDS011;54685;52.082;5.426;2023-04-03T14:03:44;1.77;;;1.00;;
67889;SDS011;54685;52.082;5.426;2023-04-03T14:06:11;1.42;;;0.73;;
67889;SDS011;54685;52.082;5.426;2023-04-03T14:08:42;3.22;;;1.00;;
67889;SDS011;54685;52.082;5.426;2023-04-03T14:11:14;2.78;;;1.10;;
67889;SDS011;54685;52.082;5.426;2023-04-03T14:13:42;3.80;;;1.37;;
67889;SDS011;54685;52.082;5.426;2023-04-03T14:16:13;3.05;;;1.05;;
67889;SDS011;54685;52.082;5.426;2023-04-03T14:18:44;1.73;;;0.98;;
67889;SDS011;54685;52.082;5.426;2023-04-03T14:21:13;4.25;;;1.35;;
67889;SDS011;54685;52.082;5.426;2023-04-03T14:23:40;4.55;;;1.00;;
67889;SDS011;54685;52.082;5.426;2023-04-03T14:26:12;4.13;;;1.20;;
67889;SDS011;54685;52.082;5.426;2023-04-03T14:28:48;2.25;;;1.20;;
67889;SDS011;54685;52.082;5.426;2023-04-03T14:31:17;3.25;;;1.30;;
67889;SDS011;54685;52.082;5.426;2023-04-03T14:33:45;2.78;;;1.40;;
67889;SDS011;54685;52.082;5.426;2023-04-03T14:36:16;7.05;;;1.13;;
67889;SDS011;54685;52.082;5.426;2023-04-03T14:38:45;2.38;;;1.17;;
67889;SDS011;54685;52.082;5.426;2023-04-03T14:41:14;2.88;;;1.10;;
67889;SDS011;54685;52.082;5.426;2023-04-03T14:43:43;2.75;;;1.23;;
67889;SDS011;54685;52.082;5.426;2023-04-03T14:46:21;4.38;;;1.25;;
67889;SDS011;54685;52.082;5.426;2023-04-03T14:49:19;6.13;;;1.60;;
67889;SDS011;54685;52.082;5.426;2023-04-03T14:51:49;5.60;;;1.20;;
67889;SDS011;54685;52.082;5.426;2023-04-03T14:54:20;2.67;;;1.13;;
67889;SDS011;54685;52.082;5.426;2023-04-03T14:56:56;4.30;;;1.30;;
67889;SDS011;54685;52.082;5.426;2023-04-03T14:59:25;2.47;;;1.52;;
67889;SDS011;54685;52.082;5.426;2023-04-03T15:01:53;2.70;;;1.10;;
67889;SDS011;54685;52.082;5.426;2023-04-03T15:04:20;2.35;;;1.20;;
67889;SDS011;54685;52.082;5.426;2023-04-03T15:06:47;3.17;;;1.20;;
67889;SDS011;54685;52.082;5.426;2023-04-03T15:09:19;4.07;;;1.05;;
67889;SDS011;54685;52.082;5.426;2023-04-03T15:11:52;3.22;;;1.25;;
67889;SDS011;54685;52.082;5.426;2023-04-03T15:14:19;2.95;;;1.38;;
67889;SDS011;54685;52.082;5.426;2023-04-03T15:17:02;2.20;;;1.40;;
67889;SDS011;54685;52.082;5.426;2023-04-03T15:19:35;6.63;;;1.40;;
67889;SDS011;54685;52.082;5.426;2023-04-03T15:22:04;4.32;;;1.55;;
67889;SDS011;54685;52.082;5.426;2023-04-03T15:24:31;3.38;;;1.50;;
67889;SDS011;54685;52.082;5.426;2023-04-03T15:26:58;3.30;;;1.52;;
67889;SDS011;54685;52.082;5.426;2023-04-03T15:29:26;4.97;;;1.60;;
67889;SDS011;54685;52.082;5.426;2023-04-03T15:31:53;5.20;;;1.75;;
67889;SDS011;54685;52.082;5.426;2023-04-03T15:34:20;2.78;;;1.40;;
67889;SDS011;54685;52.082;5.426;2023-04-03T15:36:49;3.80;;;1.40;;
67889;SDS011;54685;52.082;5.426;2023-04-03T15:39:19;3.83;;;1.58;;
67889;SDS011;54685;52.082;5.426;2023-04-03T15:41:46;3.80;;;1.30;;
67889;SDS011;54685;52.082;5.426;2023-04-03T15:44:13;4.75;;;1.40;;
67889;SDS011;54685;52.082;5.426;2023-04-03T15:46:44;4.63;;;1.35;;
67889;SDS011;54685;52.082;5.426;2023-04-03T15:49:12;3.75;;;1.48;;
67889;SDS011;54685;52.082;5.426;2023-04-03T15:51:39;5.18;;;1.55;;
67889;SDS011;54685;52.082;5.426;2023-04-03T15:54:06;3.95;;;1.65;;
67889;SDS011;54685;52.082;5.426;2023-04-03T15:56:32;3.75;;;1.15;;
67889;SDS011;54685;52.082;5.426;2023-04-03T15:58:59;2.72;;;1.40;;
67889;SDS011;54685;52.082;5.426;2023-04-03T16:01:26;5.60;;;1.42;;
67889;SDS011;54685;52.082;5.426;2023-04-03T16:03:58;4.80;;;1.40;;
67889;SDS011;54685;52.082;5.426;2023-04-03T16:06:25;4.10;;;1.40;;
67889;SDS011;54685;52.082;5.426;2023-04-03T16:11:24;4.05;;;1.33;;
67889;SDS011;54685;52.082;5.426;2023-04-03T16:13:52;3.60;;;1.30;;
67889;SDS011;54685;52.082;5.426;2023-04-03T16:16:19;5.03;;;1.35;;
67889;SDS011;54685;52.082;5.426;2023-04-03T16:18:47;5.10;;;1.55;;
67889;SDS011;54685;52.082;5.426;2023-04-03T16:21:14;4.43;;;1.48;;
67889;SDS011;54685;52.082;5.426;2023-04-03T16:23:43;3.55;;;1.38;;
67889;SDS011;54685;52.082;5.426;2023-04-03T16:26:11;4.95;;;1.52;;
67889;SDS011;54685;52.082;5.426;2023-04-03T16:28:38;3.83;;;1.50;;
67889;SDS011;54685;52.082;5.426;2023-04-03T16:31:06;2.25;;;1.10;;
67889;SDS011;54685;52.082;5.426;2023-04-03T16:33:33;5.35;;;1.40;;
67889;SDS011;54685;52.082;5.426;2023-04-03T16:36:01;3.65;;;1.58;;
67889;SDS011;54685;52.082;5.426;2023-04-03T16:38:28;5.13;;;1.33;;
67889;SDS011;54685;52.082;5.426;2023-04-03T16:40:56;3.58;;;1.10;;
67889;SDS011;54685;52.082;5.426;2023-04-03T16:43:26;2.63;;;1.38;;
67889;SDS011;54685;52.082;5.426;2023-04-03T16:45:53;5.93;;;1.55;;
67889;SDS011;54685;52.082;5.426;2023-04-03T16:48:20;3.63;;;1.10;;
67889;SDS011;54685;52.082;5.426;2023-04-03T16:50:47;2.97;;;1.38;;